sensor_id;sensor_type;location;lat;lon;timestamp;P1;durP1;ratioP1;P2;durP2;ratioP2
74821;SDS011;63353;48.702;8.884;2024-02-26T00:00:23;167.83;;;159.90;;
74821;SDS011;63353;48.702;8.884;2024-02-26T00:02:48;137.87;;;131.63;;
74821;SDS011;63353;48.702;8.884;2024-02-26T00:05:14;142.13;;;135.83;;
74821;SDS011;63353;48.702;8.884;2024-02-26T00:07:40;194.73;;;186.20;;
74821;SDS011;63353;48.702;8.884;2024-02-26T00:10:06;209.50;;;200.30;;
74821;SDS011;63353;48.702;8.884;2024-02-26T00:12:32;456.53;;;435.87;;
74821;SDS011;63353;48.702;8.884;2024-02-26T00:14:59;378.30;;;360.47;;
74821;SDS011;63353;48.702;8.884;2024-02-26T00:17:25;826.80;;;776.23;;
74821;SDS011;63353;48.702;8.884;2024-02-26T00:19:51;896.80;;;839.33;;
74821;SDS011;63353;48.702;8.884;2024-02-26T00:22:16;746.33;;;702.43;;
74821;SDS011;63353;48.702;8.884;2024-02-26T00:24:42;962.40;;;896.60;;
74821;SDS011;63353;48.702;8.884;2024-02-26T00:27:08;934.07;;;872.20;;
74821;SDS011;63353;48.702;8.884;2024-02-26T00:29:33;748.63;;;703.73;;
74821;SDS011;63353;48.702;8.884;2024-02-26T00:31:59;897.50;;;839.63;;
74821;SDS011;63353;48.702;8.884;2024-02-26T00:34:24;981.57;;;913.57;;
74821;SDS011;63353;48.702;8.884;2024-02-26T00:36:50;1006.57;;;934.53;;
74821;SDS011;63353;48.702;8.884;2024-02-26T00:39:18;981.43;;;912.43;;
74821;SDS011;63353;48.702;8.884;2024-02-26T00:41:44;1999.90;;;999.90;;
74821;SDS011;63353;48.702;8.884;2024-02-26T00:44:10;1999.90;;;999.90;;
74821;SDS011;63353;48.702;8.884;2024-02-26T00:46:36;1999.90;;;999.90;;
74821;SDS011;63353;48.702;8.884;2024-02-26T00:49:02;1999.90;;;999.90;;
74821;SDS011;63353;48.702;8.884;2024-02-26T00:51:29;634.90;;;597.40;;
74821;SDS011;63353;48.702;8.884;2024-02-26T00:53:56;759.00;;;711.40;;
74821;SDS011;63353;48.702;8.884;2024-02-26T00:56:22;795.77;;;742.90;;
74821;SDS011;63353;48.702;8.884;2024-02-26T00:58:49;883.17;;;823.20;;
74821;SDS011;63353;48.702;8.884;2024-02-26T01:01:14;862.40;;;804.60;;
74821;SDS011;63353;48.702;8.884;2024-02-26T01:03:40;908.13;;;847.77;;
74821;SDS011;63353;48.702;8.884;2024-02-26T01:06:06;928.87;;;866.07;;
74821;SDS011;63353;48.702;8.884;2024-02-26T01:08:31;804.03;;;753.93;;
74821;SDS011;63353;48.702;8.884;2024-02-26T01:10:57;851.90;;;798.10;;
74821;SDS011;63353;48.702;8.884;2024-02-26T01:13:22;817.30;;;766.77;;
74821;SDS011;63353;48.702;8.884;2024-02-26T01:15:48;1647.20;;;958.50;;
74821;SDS011;63353;48.702;8.884;2024-02-26T01:18:15;1999.90;;;999.90;;
74821;SDS011;63353;48.702;8.884;2024-02-26T01:20:42;487.17;;;454.93;;
74821;SDS011;63353;48.702;8.884;2024-02-26T01:23:08;1999.90;;;999.90;;
74821;SDS011;63353;48.702;8.884;2024-02-26T01:25:34;740.47;;;690.97;;
74821;SDS011;63353;48.702;8.884;2024-02-26T01:28:00;735.20;;;685.23;;
74821;SDS011;63353;48.702;8.884;2024-02-26T01:30:25;1448.70;;;774.07;;
74821;SDS011;63353;48.702;8.884;2024-02-26T01:32:51;476.90;;;445.57;;
74821;SDS011;63353;48.702;8.884;2024-02-26T01:35:16;524.50;;;488.43;;
74821;SDS011;63353;48.702;8.884;2024-02-26T01:37:42;1999.90;;;999.90;;
74821;SDS011;63353;48.702;8.884;2024-02-26T01:40:08;1999.90;;;999.90;;
74821;SDS011;63353;48.702;8.884;2024-02-26T01:42:34;1999.90;;;999.90;;
74821;SDS011;63353;48.702;8.884;2024-02-26T01:45:03;1999.90;;;999.90;;
74821;SDS011;63353;48.702;8.884;2024-02-26T01:47:30;1471.87;;;796.30;;
74821;SDS011;63353;48.702;8.884;2024-02-26T01:49:57;1999.90;;;999.90;;
74821;SDS011;63353;48.702;8.884;2024-02-26T01:52:22;1999.90;;;999.90;;
74821;SDS011;63353;48.702;8.884;2024-02-26T01:54:48;1999.90;;;999.90;;
74821;SDS011;63353;48.702;8.884;2024-02-26T01:57:15;642.63;;;599.13;;
74821;SDS011;63353;48.702;8.884;2024-02-26T01:59:41;1999.90;;;999.90;;
74821;SDS011;63353;48.702;8.884;2024-02-26T02:02:08;687.00;;;637.97;;
74821;SDS011;63353;48.702;8.884;2024-02-26T02:04:36;822.57;;;764.77;;
74821;SDS011;63353;48.702;8.884;2024-02-26T02:07:03;869.03;;;806.17;;
74821;SDS011;63353;48.702;8.884;2024-02-26T02:09:31;856.17;;;795.00;;
74821;SDS011;63353;48.702;8.884;2024-02-26T02:11:58;769.27;;;714.23;;
74821;SDS011;63353;48.702;8.884;2024-02-26T02:14:24;804.20;;;747.00;;
74821;SDS011;63353;48.702;8.884;2024-02-26T02:16:50;1999.90;;;999.90;;
74821;SDS011;63353;48.702;8.884;2024-02-26T02:19:16;1999.90;;;999.90;;
74821;SDS011;63353;48.702;8.884;2024-02-26T02:21:41;730.67;;;679.33;;
74821;SDS011;63353;48.702;8.884;2024-02-26T02:24:07;290.90;;;269.33;;
74821;SDS011;63353;48.702;8.884;2024-02-26T02:26:32;770.80;;;717.83;;
74821;SDS011;63353;48.702;8.884;2024-02-26T02:28:58;817.63;;;762.57;;
74821;SDS011;63353;48.702;8.884;2024-02-26T02:31:26;900.37;;;838.40;;
74821;SDS011;63353;48.702;8.884;2024-02-26T02:33:52;925.77;;;860.90;;
74821;SDS011;63353;48.702;8.884;2024-02-26T02:36:18;890.83;;;827.00;;
74821;SDS011;63353;48.702;8.884;2024-02-26T02:38:50;842.57;;;783.63;;
74821;SDS011;63353;48.702;8.884;2024-02-26T02:41:17;885.90;;;823.70;;
74821;SDS011;63353;48.702;8.884;2024-02-26T02:43:43;906.70;;;842.97;;
74821;SDS011;63353;48.702;8.884;2024-02-26T02:46:09;925.30;;;859.73;;
74821;SDS011;63353;48.702;8.884;2024-02-26T02:48:36;809.37;;;755.80;;
74821;SDS011;63353;48.702;8.884;2024-02-26T02:51:02;849.30;;;795.13;;
74821;SDS011;63353;48.702;8.884;2024-02-26T02:53:29;754.67;;;709.17;;
74821;SDS011;63353;48.702;8.884;2024-02-26T02:55:54;594.93;;;561.07;;
74821;SDS011;63353;48.702;8.884;2024-02-26T02:58:20;757.87;;;714.17;;
74821;SDS011;63353;48.702;8.884;2024-02-26T03:00:47;702.47;;;662.47;;
74821;SDS011;63353;48.702;8.884;2024-02-26T03:03:12;482.63;;;457.53;;
74821;SDS011;63353;48.702;8.884;2024-02-26T03:05:38;658.80;;;624.30;;
74821;SDS011;63353;48.702;8.884;2024-02-26T03:08:04;549.97;;;521.23;;
74821;SDS011;63353;48.702;8.884;2024-02-26T03:10:31;390.27;;;369.33;;
74821;SDS011;63353;48.702;8.884;2024-02-26T03:12:56;320.93;;;305.10;;
74821;SDS011;63353;48.702;8.884;2024-02-26T03:15:22;266.40;;;253.37;;
74821;SDS011;63353;48.702;8.884;2024-02-26T03:17:48;393.37;;;375.80;;
74821;SDS011;63353;48.702;8.884;2024-02-26T03:20:13;265.53;;;252.77;;
74821;SDS011;63353;48.702;8.884;2024-02-26T03:22:39;162.30;;;154.50;;
74821;SDS011;63353;48.702;8.884;2024-02-26T03:25:05;148.77;;;142.13;;
74821;SDS011;63353;48.702;8.884;2024-02-26T03:27:32;129.97;;;124.23;;
74821;SDS011;63353;48.702;8.884;2024-02-26T03:29:57;233.53;;;223.67;;
74821;SDS011;63353;48.702;8.884;2024-02-26T03:32:23;187.57;;;179.03;;
74821;SDS011;63353;48.702;8.884;2024-02-26T03:34:49;168.60;;;161.03;;
74821;SDS011;63353;48.702;8.884;2024-02-26T03:37:14;134.73;;;128.40;;
74821;SDS011;63353;48.702;8.884;2024-02-26T03:39:41;107.70;;;103.03;;
74821;SDS011;63353;48.702;8.884;2024-02-26T03:42:06;86.57;;;83.10;;
74821;SDS011;63353;48.702;8.884;2024-02-26T03:44:32;85.67;;;82.37;;
74821;SDS011;63353;48.702;8.884;2024-02-26T03:46:58;112.03;;;107.77;;
74821;SDS011;63353;48.702;8.884;2024-02-26T03:49:23;119.73;;;115.13;;
74821;SDS011;63353;48.702;8.884;2024-02-26T03:51:49;105.23;;;101.17;;
74821;SDS011;63353;48.702;8.884;2024-02-26T03:54:16;123.07;;;118.27;;
74821;SDS011;63353;48.702;8.884;2024-02-26T03:56:42;136.33;;;131.00;;
74821;SDS011;63353;48.702;8.884;2024-02-26T03:59:07;141.07;;;135.53;;
74821;SDS011;63353;48.702;8.884;2024-02-26T04:01:33;126.93;;;122.00;;
74821;SDS011;63353;48.702;8.884;2024-02-26T04:03:59;109.80;;;105.57;;
74821;SDS011;63353;48.702;8.884;2024-02-26T04:06:25;143.60;;;137.93;;
74821;SDS011;63353;48.702;8.884;2024-02-26T04:08:50;120.77;;;116.17;;
74821;SDS011;63353;48.702;8.884;2024-02-26T04:11:16;159.50;;;153.23;;
74821;SDS011;63353;48.702;8.884;2024-02-26T04:13:44;122.87;;;118.10;;
74821;SDS011;63353;48.702;8.884;2024-02-26T04:16:14;130.27;;;125.17;;
74821;SDS011;63353;48.702;8.884;2024-02-26T04:18:41;146.37;;;140.47;;
74821;SDS011;63353;48.702;8.884;2024-02-26T04:21:07;97.53;;;93.37;;
74821;SDS011;63353;48.702;8.884;2024-02-26T04:23:34;31.17;;;29.63;;
74821;SDS011;63353;48.702;8.884;2024-02-26T04:25:59;49.13;;;46.60;;
74821;SDS011;63353;48.702;8.884;2024-02-26T04:28:25;43.40;;;41.43;;
74821;SDS011;63353;48.702;8.884;2024-02-26T04:30:54;23.47;;;22.60;;
74821;SDS011;63353;48.702;8.884;2024-02-26T04:33:20;12.70;;;12.20;;
74821;SDS011;63353;48.702;8.884;2024-02-26T04:35:46;18.87;;;18.20;;
74821;SDS011;63353;48.702;8.884;2024-02-26T04:38:12;50.43;;;48.50;;
74821;SDS011;63353;48.702;8.884;2024-02-26T04:40:37;21.43;;;20.63;;
74821;SDS011;63353;48.702;8.884;2024-02-26T04:43:03;50.90;;;48.90;;
74821;SDS011;63353;48.702;8.884;2024-02-26T04:45:29;13.37;;;12.90;;
74821;SDS011;63353;48.702;8.884;2024-02-26T04:47:54;8.20;;;7.90;;
74821;SDS011;63353;48.702;8.884;2024-02-26T04:50:22;11.83;;;11.33;;
74821;SDS011;63353;48.702;8.884;2024-02-26T04:52:49;15.70;;;15.10;;
74821;SDS011;63353;48.702;8.884;2024-02-26T04:55:15;12.47;;;12.03;;
74821;SDS011;63353;48.702;8.884;2024-02-26T04:57:41;22.30;;;21.47;;
74821;SDS011;63353;48.702;8.884;2024-02-26T05:00:08;31.63;;;30.33;;
74821;SDS011;63353;48.702;8.884;2024-02-26T05:02:34;44.60;;;42.83;;
74821;SDS011;63353;48.702;8.884;2024-02-26T05:05:03;13.43;;;12.90;;
74821;SDS011;63353;48.702;8.884;2024-02-26T05:07:30;13.40;;;12.90;;
74821;SDS011;63353;48.702;8.884;2024-02-26T05:09:56;29.33;;;28.23;;
74821;SDS011;63353;48.702;8.884;2024-02-26T05:12:21;67.17;;;64.60;;
74821;SDS011;63353;48.702;8.884;2024-02-26T05:14:47;101.87;;;97.83;;
74821;SDS011;63353;48.702;8.884;2024-02-26T05:17:13;116.97;;;112.37;;
74821;SDS011;63353;48.702;8.884;2024-02-26T05:19:38;133.30;;;128.10;;
74821;SDS011;63353;48.702;8.884;2024-02-26T05:22:04;140.40;;;134.93;;
74821;SDS011;63353;48.702;8.884;2024-02-26T05:24:29;141.43;;;135.83;;
74821;SDS011;63353;48.702;8.884;2024-02-26T05:26:55;147.37;;;141.57;;
74821;SDS011;63353;48.702;8.884;2024-02-26T05:29:21;145.23;;;139.53;;
74821;SDS011;63353;48.702;8.884;2024-02-26T05:31:46;120.87;;;116.17;;
74821;SDS011;63353;48.702;8.884;2024-02-26T05:34:12;86.90;;;83.50;;
74821;SDS011;63353;48.702;8.884;2024-02-26T05:36:37;83.87;;;80.63;;
74821;SDS011;63353;48.702;8.884;2024-02-26T05:39:04;77.37;;;74.43;;
74821;SDS011;63353;48.702;8.884;2024-02-26T05:41:30;121.60;;;116.87;;
74821;SDS011;63353;48.702;8.884;2024-02-26T05:43:55;221.53;;;212.00;;
74821;SDS011;63353;48.702;8.884;2024-02-26T05:46:21;347.00;;;330.57;;
74821;SDS011;63353;48.702;8.884;2024-02-26T05:48:49;417.57;;;395.70;;
74821;SDS011;63353;48.702;8.884;2024-02-26T05:51:16;499.53;;;472.17;;
74821;SDS011;63353;48.702;8.884;2024-02-26T05:53:43;1027.97;;;674.80;;
74821;SDS011;63353;48.702;8.884;2024-02-26T05:56:12;1080.40;;;723.30;;
74821;SDS011;63353;48.702;8.884;2024-02-26T05:58:37;1999.90;;;999.90;;
74821;SDS011;63353;48.702;8.884;2024-02-26T06:01:03;1999.90;;;999.90;;
74821;SDS011;63353;48.702;8.884;2024-02-26T06:03:29;1999.90;;;999.90;;
74821;SDS011;63353;48.702;8.884;2024-02-26T06:05:54;1999.90;;;999.90;;
74821;SDS011;63353;48.702;8.884;2024-02-26T06:08:21;1999.90;;;999.90;;
74821;SDS011;63353;48.702;8.884;2024-02-26T06:10:47;1999.90;;;999.90;;
74821;SDS011;63353;48.702;8.884;2024-02-26T06:13:14;1999.90;;;999.90;;
74821;SDS011;63353;48.702;8.884;2024-02-26T06:15:42;1999.90;;;999.90;;
74821;SDS011;63353;48.702;8.884;2024-02-26T06:18:08;1999.90;;;999.90;;
74821;SDS011;63353;48.702;8.884;2024-02-26T06:20:33;1999.90;;;999.90;;
74821;SDS011;63353;48.702;8.884;2024-02-26T06:23:00;1999.90;;;999.90;;
74821;SDS011;63353;48.702;8.884;2024-02-26T06:25:26;1999.90;;;999.90;;
74821;SDS011;63353;48.702;8.884;2024-02-26T06:27:51;1999.90;;;999.90;;
74821;SDS011;63353;48.702;8.884;2024-02-26T06:30:19;1999.90;;;999.90;;
74821;SDS011;63353;48.702;8.884;2024-02-26T06:32:46;1999.90;;;999.90;;
74821;SDS011;63353;48.702;8.884;2024-02-26T06:35:12;1999.90;;;999.90;;
74821;SDS011;63353;48.702;8.884;2024-02-26T06:37:37;1999.90;;;999.90;;
74821;SDS011;63353;48.702;8.884;2024-02-26T06:40:04;1999.90;;;999.90;;
74821;SDS011;63353;48.702;8.884;2024-02-26T06:42:32;1999.90;;;999.90;;
74821;SDS011;63353;48.702;8.884;2024-02-26T06:44:58;1999.90;;;999.90;;
74821;SDS011;63353;48.702;8.884;2024-02-26T06:47:24;1999.90;;;999.90;;
74821;SDS011;63353;48.702;8.884;2024-02-26T06:49:50;1999.90;;;999.90;;
74821;SDS011;63353;48.702;8.884;2024-02-26T06:52:15;1999.90;;;999.90;;
74821;SDS011;63353;48.702;8.884;2024-02-26T06:54:41;1999.90;;;999.90;;
74821;SDS011;63353;48.702;8.884;2024-02-26T06:57:06;1999.90;;;999.90;;
74821;SDS011;63353;48.702;8.884;2024-02-26T06:59:33;1999.90;;;999.90;;
74821;SDS011;63353;48.702;8.884;2024-02-26T07:01:59;1999.90;;;999.90;;
74821;SDS011;63353;48.702;8.884;2024-02-26T07:04:24;1999.90;;;999.90;;
74821;SDS011;63353;48.702;8.884;2024-02-26T07:06:50;1999.90;;;999.90;;
74821;SDS011;63353;48.702;8.884;2024-02-26T07:09:16;1999.90;;;999.90;;
74821;SDS011;63353;48.702;8.884;2024-02-26T07:11:41;1999.90;;;999.90;;
74821;SDS011;63353;48.702;8.884;2024-02-26T07:14:09;1999.90;;;999.90;;
74821;SDS011;63353;48.702;8.884;2024-02-26T07:16:37;1999.90;;;999.90;;
74821;SDS011;63353;48.702;8.884;2024-02-26T07:19:02;1999.90;;;999.90;;
74821;SDS011;63353;48.702;8.884;2024-02-26T07:21:28;1999.90;;;999.90;;
74821;SDS011;63353;48.702;8.884;2024-02-26T07:23:54;1999.90;;;999.90;;
74821;SDS011;63353;48.702;8.884;2024-02-26T07:26:21;1999.90;;;999.90;;
74821;SDS011;63353;48.702;8.884;2024-02-26T07:28:50;1999.90;;;999.90;;
74821;SDS011;63353;48.702;8.884;2024-02-26T07:31:17;1999.90;;;999.90;;
74821;SDS011;63353;48.702;8.884;2024-02-26T07:33:44;1999.90;;;999.90;;
74821;SDS011;63353;48.702;8.884;2024-02-26T07:36:10;1999.90;;;999.90;;
74821;SDS011;63353;48.702;8.884;2024-02-26T07:38:38;1999.90;;;999.90;;
74821;SDS011;63353;48.702;8.884;2024-02-26T07:41:04;1999.90;;;999.90;;
74821;SDS011;63353;48.702;8.884;2024-02-26T07:43:30;1999.90;;;999.90;;
74821;SDS011;63353;48.702;8.884;2024-02-26T07:45:56;1999.90;;;999.90;;
74821;SDS011;63353;48.702;8.884;2024-02-26T07:48:22;1999.90;;;999.90;;
74821;SDS011;63353;48.702;8.884;2024-02-26T07:50:47;1999.90;;;999.90;;
74821;SDS011;63353;48.702;8.884;2024-02-26T07:53:16;1999.90;;;999.90;;
74821;SDS011;63353;48.702;8.884;2024-02-26T07:55:41;1999.90;;;999.90;;
74821;SDS011;63353;48.702;8.884;2024-02-26T07:58:08;1999.90;;;999.90;;
74821;SDS011;63353;48.702;8.884;2024-02-26T08:00:36;1999.90;;;999.90;;
74821;SDS011;63353;48.702;8.884;2024-02-26T08:03:01;1999.90;;;999.90;;
74821;SDS011;63353;48.702;8.884;2024-02-26T08:05:30;1999.90;;;999.90;;
74821;SDS011;63353;48.702;8.884;2024-02-26T08:07:56;1999.90;;;999.90;;
74821;SDS011;63353;48.702;8.884;2024-02-26T08:10:22;1999.90;;;999.90;;
74821;SDS011;63353;48.702;8.884;2024-02-26T08:12:49;1999.90;;;999.90;;
74821;SDS011;63353;48.702;8.884;2024-02-26T08:15:15;1999.90;;;999.90;;
74821;SDS011;63353;48.702;8.884;2024-02-26T08:17:40;1999.90;;;999.90;;
74821;SDS011;63353;48.702;8.884;2024-02-26T08:20:06;1999.90;;;999.90;;
74821;SDS011;63353;48.702;8.884;2024-02-26T08:22:33;1999.90;;;999.90;;
74821;SDS011;63353;48.702;8.884;2024-02-26T08:25:00;1999.90;;;999.90;;
74821;SDS011;63353;48.702;8.884;2024-02-26T08:27:30;1999.90;;;999.90;;
74821;SDS011;63353;48.702;8.884;2024-02-26T08:29:55;1999.90;;;999.90;;
74821;SDS011;63353;48.702;8.884;2024-02-26T08:32:22;1444.50;;;768.20;;
74821;SDS011;63353;48.702;8.884;2024-02-26T08:34:48;1999.90;;;999.90;;
74821;SDS011;63353;48.702;8.884;2024-02-26T08:37:13;833.50;;;780.07;;
74821;SDS011;63353;48.702;8.884;2024-02-26T08:39:40;463.80;;;443.13;;
74821;SDS011;63353;48.702;8.884;2024-02-26T08:42:05;116.93;;;112.23;;
74821;SDS011;63353;48.702;8.884;2024-02-26T08:44:31;102.03;;;97.80;;
74821;SDS011;63353;48.702;8.884;2024-02-26T08:46:56;44.57;;;42.73;;
74821;SDS011;63353;48.702;8.884;2024-02-26T08:49:24;27.10;;;25.97;;
74821;SDS011;63353;48.702;8.884;2024-02-26T08:51:49;12.23;;;11.77;;
74821;SDS011;63353;48.702;8.884;2024-02-26T08:54:16;9.83;;;9.43;;
74821;SDS011;63353;48.702;8.884;2024-02-26T08:56:42;9.70;;;9.30;;
74821;SDS011;63353;48.702;8.884;2024-02-26T08:59:08;8.70;;;8.30;;
74821;SDS011;63353;48.702;8.884;2024-02-26T09:01:33;10.20;;;9.80;;
74821;SDS011;63353;48.702;8.884;2024-02-26T09:03:59;133.30;;;128.00;;
74821;SDS011;63353;48.702;8.884;2024-02-26T09:06:25;155.90;;;149.50;;
74821;SDS011;63353;48.702;8.884;2024-02-26T09:08:51;576.83;;;540.37;;
74821;SDS011;63353;48.702;8.884;2024-02-26T09:11:17;1999.90;;;999.90;;
74821;SDS011;63353;48.702;8.884;2024-02-26T09:13:42;1999.90;;;999.90;;
74821;SDS011;63353;48.702;8.884;2024-02-26T09:16:11;1999.90;;;999.90;;
74821;SDS011;63353;48.702;8.884;2024-02-26T09:18:37;1999.90;;;999.90;;
74821;SDS011;63353;48.702;8.884;2024-02-26T09:21:05;1999.90;;;999.90;;
74821;SDS011;63353;48.702;8.884;2024-02-26T09:23:32;762.70;;;693.30;;
74821;SDS011;63353;48.702;8.884;2024-02-26T09:25:59;913.30;;;841.83;;
74821;SDS011;63353;48.702;8.884;2024-02-26T09:28:25;606.20;;;574.80;;
74821;SDS011;63353;48.702;8.884;2024-02-26T09:30:51;15.90;;;15.23;;
74821;SDS011;63353;48.702;8.884;2024-02-26T09:33:17;97.37;;;93.53;;
74821;SDS011;63353;48.702;8.884;2024-02-26T09:35:42;36.97;;;35.47;;
74821;SDS011;63353;48.702;8.884;2024-02-26T09:38:09;14.03;;;13.43;;
74821;SDS011;63353;48.702;8.884;2024-02-26T09:40:35;68.67;;;65.97;;
74821;SDS011;63353;48.702;8.884;2024-02-26T09:43:02;101.77;;;97.73;;
74821;SDS011;63353;48.702;8.884;2024-02-26T09:45:30;121.57;;;116.70;;
74821;SDS011;63353;48.702;8.884;2024-02-26T09:47:58;151.17;;;145.10;;
74821;SDS011;63353;48.702;8.884;2024-02-26T09:50:24;60.23;;;57.73;;
74821;SDS011;63353;48.702;8.884;2024-02-26T09:52:49;40.13;;;38.47;;
74821;SDS011;63353;48.702;8.884;2024-02-26T09:55:18;16.33;;;15.63;;
74821;SDS011;63353;48.702;8.884;2024-02-26T09:57:46;58.07;;;55.80;;
74821;SDS011;63353;48.702;8.884;2024-02-26T10:00:14;111.83;;;107.33;;
74821;SDS011;63353;48.702;8.884;2024-02-26T10:02:46;10.20;;;9.80;;
74821;SDS011;63353;48.702;8.884;2024-02-26T10:05:19;719.13;;;674.50;;
74821;SDS011;63353;48.702;8.884;2024-02-26T10:07:48;855.07;;;803.37;;
74821;SDS011;63353;48.702;8.884;2024-02-26T10:10:14;782.77;;;737.20;;
74821;SDS011;63353;48.702;8.884;2024-02-26T10:12:41;391.33;;;369.80;;
74821;SDS011;63353;48.702;8.884;2024-02-26T10:15:06;263.50;;;250.27;;
74821;SDS011;63353;48.702;8.884;2024-02-26T10:17:33;475.57;;;451.80;;
74821;SDS011;63353;48.702;8.884;2024-02-26T10:20:12;831.87;;;781.17;;
74821;SDS011;63353;48.702;8.884;2024-02-26T10:22:41;382.83;;;363.40;;
74821;SDS011;63353;48.702;8.884;2024-02-26T10:25:07;708.67;;;668.90;;
74821;SDS011;63353;48.702;8.884;2024-02-26T10:27:33;668.53;;;630.73;;
74821;SDS011;63353;48.702;8.884;2024-02-26T10:30:03;270.80;;;259.77;;
74821;SDS011;63353;48.702;8.884;2024-02-26T10:32:30;593.70;;;562.53;;
74821;SDS011;63353;48.702;8.884;2024-02-26T10:34:57;740.77;;;699.23;;
74821;SDS011;63353;48.702;8.884;2024-02-26T10:37:23;248.30;;;236.13;;
74821;SDS011;63353;48.702;8.884;2024-02-26T10:39:50;614.97;;;582.40;;
74821;SDS011;63353;48.702;8.884;2024-02-26T10:42:15;701.90;;;663.13;;
74821;SDS011;63353;48.702;8.884;2024-02-26T10:44:44;121.43;;;114.57;;
74821;SDS011;63353;48.702;8.884;2024-02-26T10:47:10;67.73;;;64.83;;
74821;SDS011;63353;48.702;8.884;2024-02-26T10:49:36;154.40;;;147.87;;
74821;SDS011;63353;48.702;8.884;2024-02-26T10:52:02;37.87;;;36.27;;
74821;SDS011;63353;48.702;8.884;2024-02-26T10:54:31;5.67;;;5.37;;
74821;SDS011;63353;48.702;8.884;2024-02-26T10:56:58;5.60;;;5.40;;
74821;SDS011;63353;48.702;8.884;2024-02-26T10:59:26;5.53;;;5.33;;
74821;SDS011;63353;48.702;8.884;2024-02-26T11:01:53;6.17;;;5.87;;
74821;SDS011;63353;48.702;8.884;2024-02-26T11:04:20;5.00;;;4.80;;
74821;SDS011;63353;48.702;8.884;2024-02-26T11:06:47;5.70;;;5.33;;
74821;SDS011;63353;48.702;8.884;2024-02-26T11:09:15;3.70;;;3.60;;
74821;SDS011;63353;48.702;8.884;2024-02-26T11:11:41;4.23;;;4.03;;
74821;SDS011;63353;48.702;8.884;2024-02-26T11:14:09;4.37;;;4.27;;
74821;SDS011;63353;48.702;8.884;2024-02-26T11:16:36;5.33;;;5.10;;
74821;SDS011;63353;48.702;8.884;2024-02-26T11:19:04;6.10;;;5.90;;
74821;SDS011;63353;48.702;8.884;2024-02-26T11:21:33;5.63;;;5.33;;
74821;SDS011;63353;48.702;8.884;2024-02-26T11:24:08;18.37;;;10.17;;
74821;SDS011;63353;48.702;8.884;2024-02-26T11:26:40;8.63;;;8.03;;
74821;SDS011;63353;48.702;8.884;2024-02-26T11:29:16;6.53;;;6.27;;
74821;SDS011;63353;48.702;8.884;2024-02-26T11:31:46;5.57;;;5.37;;
74821;SDS011;63353;48.702;8.884;2024-02-26T11:34:12;6.00;;;5.73;;
74821;SDS011;63353;48.702;8.884;2024-02-26T11:36:38;7.30;;;7.00;;
74821;SDS011;63353;48.702;8.884;2024-02-26T11:39:04;8.27;;;7.93;;
74821;SDS011;63353;48.702;8.884;2024-02-26T11:41:31;6.03;;;5.73;;
74821;SDS011;63353;48.702;8.884;2024-02-26T11:46:29;10.10;;;9.60;;
74821;SDS011;63353;48.702;8.884;2024-02-26T11:49:02;8.27;;;7.87;;
74821;SDS011;63353;48.702;8.884;2024-02-26T11:51:50;5.93;;;5.73;;
74821;SDS011;63353;48.702;8.884;2024-02-26T11:57:19;5.03;;;4.93;;
74821;SDS011;63353;48.702;8.884;2024-02-26T11:59:55;5.40;;;5.20;;
74821;SDS011;63353;48.702;8.884;2024-02-26T12:05:25;6.10;;;5.70;;
74821;SDS011;63353;48.702;8.884;2024-02-26T12:07:54;5.77;;;5.57;;
74821;SDS011;63353;48.702;8.884;2024-02-26T12:10:23;5.60;;;5.40;;
74821;SDS011;63353;48.702;8.884;2024-02-26T12:13:00;6.67;;;6.37;;
74821;SDS011;63353;48.702;8.884;2024-02-26T12:15:33;5.27;;;5.07;;
74821;SDS011;63353;48.702;8.884;2024-02-26T12:18:07;4.47;;;4.37;;
74821;SDS011;63353;48.702;8.884;2024-02-26T12:20:36;5.73;;;5.53;;
74821;SDS011;63353;48.702;8.884;2024-02-26T12:23:03;6.47;;;6.27;;
74821;SDS011;63353;48.702;8.884;2024-02-26T12:25:30;5.43;;;5.23;;
74821;SDS011;63353;48.702;8.884;2024-02-26T12:27:56;6.80;;;6.50;;
74821;SDS011;63353;48.702;8.884;2024-02-26T12:30:23;5.77;;;5.67;;
74821;SDS011;63353;48.702;8.884;2024-02-26T12:32:50;8.30;;;7.80;;
74821;SDS011;63353;48.702;8.884;2024-02-26T12:35:17;7.50;;;7.10;;
74821;SDS011;63353;48.702;8.884;2024-02-26T12:37:43;6.30;;;6.00;;
74821;SDS011;63353;48.702;8.884;2024-02-26T12:40:13;5.80;;;5.60;;
74821;SDS011;63353;48.702;8.884;2024-02-26T12:42:39;7.00;;;6.80;;
74821;SDS011;63353;48.702;8.884;2024-02-26T12:45:09;5.50;;;5.33;;
74821;SDS011;63353;48.702;8.884;2024-02-26T12:47:40;5.80;;;5.60;;
74821;SDS011;63353;48.702;8.884;2024-02-26T12:50:06;6.23;;;5.93;;
74821;SDS011;63353;48.702;8.884;2024-02-26T12:52:34;4.97;;;4.87;;
74821;SDS011;63353;48.702;8.884;2024-02-26T12:55:01;5.63;;;5.43;;
74821;SDS011;63353;48.702;8.884;2024-02-26T12:57:28;5.67;;;5.47;;
74821;SDS011;63353;48.702;8.884;2024-02-26T13:00:02;9.87;;;9.10;;
74821;SDS011;63353;48.702;8.884;2024-02-26T13:02:34;4.43;;;4.23;;
74821;SDS011;63353;48.702;8.884;2024-02-26T13:05:02;4.47;;;4.37;;
74821;SDS011;63353;48.702;8.884;2024-02-26T13:07:32;4.90;;;4.60;;
74821;SDS011;63353;48.702;8.884;2024-02-26T13:09:58;7.10;;;6.57;;
74821;SDS011;63353;48.702;8.884;2024-02-26T13:12:24;5.37;;;5.00;;
74821;SDS011;63353;48.702;8.884;2024-02-26T13:15:00;4.13;;;3.90;;
74821;SDS011;63353;48.702;8.884;2024-02-26T13:17:26;4.00;;;3.80;;
74821;SDS011;63353;48.702;8.884;2024-02-26T13:19:53;3.23;;;3.13;;
74821;SDS011;63353;48.702;8.884;2024-02-26T13:22:22;2.70;;;2.60;;
74821;SDS011;63353;48.702;8.884;2024-02-26T13:24:58;3.70;;;3.50;;
74821;SDS011;63353;48.702;8.884;2024-02-26T13:27:24;3.30;;;3.20;;
74821;SDS011;63353;48.702;8.884;2024-02-26T13:32:31;2.40;;;2.40;;
74821;SDS011;63353;48.702;8.884;2024-02-26T13:35:06;3.23;;;3.13;;
74821;SDS011;63353;48.702;8.884;2024-02-26T13:37:34;5.77;;;5.57;;
74821;SDS011;63353;48.702;8.884;2024-02-26T13:40:00;6.60;;;6.40;;
74821;SDS011;63353;48.702;8.884;2024-02-26T13:42:30;4.20;;;3.90;;
74821;SDS011;63353;48.702;8.884;2024-02-26T13:44:56;3.50;;;3.30;;
74821;SDS011;63353;48.702;8.884;2024-02-26T13:47:21;2.57;;;2.57;;
74821;SDS011;63353;48.702;8.884;2024-02-26T13:49:47;7.00;;;2.53;;
74821;SDS011;63353;48.702;8.884;2024-02-26T13:52:14;2.80;;;2.70;;
74821;SDS011;63353;48.702;8.884;2024-02-26T13:54:41;2.67;;;2.67;;
74821;SDS011;63353;48.702;8.884;2024-02-26T13:57:07;21.40;;;13.03;;
74821;SDS011;63353;48.702;8.884;2024-02-26T13:59:33;3.17;;;3.00;;
74821;SDS011;63353;48.702;8.884;2024-02-26T14:01:59;6.33;;;5.83;;
74821;SDS011;63353;48.702;8.884;2024-02-26T14:04:25;4.23;;;4.03;;
74821;SDS011;63353;48.702;8.884;2024-02-26T14:06:51;3.10;;;3.00;;
74821;SDS011;63353;48.702;8.884;2024-02-26T14:09:17;2.97;;;2.87;;
74821;SDS011;63353;48.702;8.884;2024-02-26T14:11:47;8.80;;;8.50;;
74821;SDS011;63353;48.702;8.884;2024-02-26T14:14:14;18.90;;;18.23;;
74821;SDS011;63353;48.702;8.884;2024-02-26T14:16:40;21.43;;;20.13;;